Time;durP1;ratioP1;P1;durP2;ratioP2;P2;SDS_P1;SDS_P2;PMS_P1;PMS_P2;Temp;Humidity;BMP_temperature;BMP_pressure;BME280_temperature;BME280_humidity;BME280_pressure;Samples;Min_cycle;Max_cycle;Signal;HPM_P1;HPM_P2
2022/04/07 00:00:36;;;;;;;34.57;18.30;;;6.10;99.90;;;;;;4160646;28;20489;-59
2022/04/07 00:02:37;;;;;;;31.33;16.63;;;5.90;99.90;;;;;;4159348;28;20087;-59
2022/04/07 00:04:38;;;;;;;35.33;17.17;;;5.90;99.90;;;;;;4159680;28;20433;-56
2022/04/07 00:06:39;;;;;;;31.70;15.53;;;5.80;99.90;;;;;;4158154;28;20412;-55
2022/04/07 00:08:41;;;;;;;28.10;14.47;;;5.70;99.90;;;;;;4158277;28;20053;-55
2022/04/07 00:10:42;;;;;;;28.93;16.27;;;5.80;99.90;;;;;;4158653;28;20037;-56
2022/04/07 00:12:44;;;;;;;32.10;15.70;;;5.80;99.90;;;;;;4159334;28;20080;-59
2022/04/07 00:14:46;;;;;;;34.53;17.37;;;5.90;99.90;;;;;;4160220;28;20018;-57
2022/04/07 00:16:47;;;;;;;29.07;16.23;;;5.90;99.90;;;;;;4157800;28;20039;-58
2022/04/07 00:18:48;;;;;;;32.47;15.77;;;5.90;99.90;;;;;;4159732;28;20543;-58
2022/04/07 00:20:50;;;;;;;31.77;16.63;;;5.90;99.90;;;;;;4158561;28;20378;-57
2022/04/07 00:22:52;;;;;;;35.23;16.60;;;5.90;99.90;;;;;;4160101;28;20042;-57
2022/04/07 00:24:53;;;;;;;37.40;19.50;;;5.90;99.90;;;;;;4158856;28;20544;-59
2022/04/07 00:26:54;;;;;;;32.20;17.83;;;5.90;99.90;;;;;;4158780;28;20041;-56
2022/04/07 00:28:55;;;;;;;33.30;17.93;;;5.90;99.90;;;;;;4158520;28;20366;-57
2022/04/07 00:30:58;;;;;;;34.30;17.33;;;6.00;99.90;;;;;;4155521;28;20099;-58
2022/04/07 00:32:59;;;;;;;29.00;16.57;;;5.90;99.90;;;;;;4158284;28;20275;-55
2022/04/07 00:35:00;;;;;;;27.77;16.77;;;5.90;99.90;;;;;;4159970;28;20087;-57
2022/04/07 00:37:02;;;;;;;24.23;13.43;;;5.90;99.90;;;;;;4158430;28;20076;-58
2022/04/07 00:39:03;;;;;;;24.17;13.93;;;5.80;99.90;;;;;;4159647;28;20092;-53
2022/04/07 00:41:05;;;;;;;29.93;15.57;;;5.80;99.90;;;;;;4158546;28;20042;-54
2022/04/07 00:43:06;;;;;;;27.10;14.30;;;5.80;99.90;;;;;;4158977;28;20107;-57
2022/04/07 00:45:07;;;;;;;28.70;13.80;;;5.80;99.90;;;;;;4158398;28;20033;-54
2022/04/07 00:47:12;;;;;;;28.57;14.17;;;5.70;99.90;;;;;;4158039;28;20512;-61
2022/04/07 00:49:13;;;;;;;25.90;13.57;;;5.70;99.90;;;;;;4159756;28;20049;-55
2022/04/07 00:51:14;;;;;;;24.97;13.27;;;5.70;99.90;;;;;;4157018;28;20170;-54
2022/04/07 00:53:16;;;;;;;24.63;12.50;;;5.70;99.90;;;;;;4159667;28;20045;-57
2022/04/07 00:55:19;;;;;;;24.23;14.13;;;5.70;99.90;;;;;;4158746;28;20033;-57
2022/04/07 00:57:20;;;;;;;29.60;15.50;;;5.70;99.90;;;;;;4159539;28;20107;-57
2022/04/07 00:59:22;;;;;;;31.37;15.13;;;5.70;99.90;;;;;;4158218;28;20091;-57
2022/04/07 01:01:27;;;;;;;23.47;14.17;;;5.60;99.90;;;;;;4157551;28;20263;-57
2022/04/07 01:03:29;;;;;;;25.43;14.70;;;5.60;99.90;;;;;;4158024;28;20528;-57
2022/04/07 01:05:31;;;;;;;25.63;14.03;;;5.50;99.90;;;;;;4159280;28;20095;-56
2022/04/07 01:07:37;;;;;;;21.67;13.63;;;5.50;99.90;;;;;;4158042;28;20099;-57
2022/04/07 01:09:38;;;;;;;23.90;13.03;;;5.40;99.90;;;;;;4160535;28;20270;-59
2022/04/07 01:11:41;;;;;;;24.80;12.83;;;5.40;99.90;;;;;;4157456;28;20297;-56
2022/04/07 01:13:52;;;;;;;23.57;12.50;;;5.40;99.90;;;;;;4158768;28;21159;-57
2022/04/07 01:15:53;;;;;;;19.33;10.93;;;5.40;99.90;;;;;;4157447;28;20884;-58
2022/04/07 01:17:55;;;;;;;21.93;11.97;;;5.40;99.90;;;;;;4156471;28;20091;-56
2022/04/07 01:19:57;;;;;;;19.70;12.20;;;5.40;99.90;;;;;;4157325;28;20291;-59
2022/04/07 01:21:58;;;;;;;21.53;13.07;;;5.40;99.90;;;;;;4158338;28;20279;-58
2022/04/07 01:24:03;;;;;;;18.93;11.30;;;5.40;99.90;;;;;;4158338;28;20037;-58
2022/04/07 01:26:09;;;;;;;20.00;11.53;;;5.50;99.90;;;;;;4158120;28;20294;-57
2022/04/07 01:28:10;;;;;;;23.70;12.60;;;5.40;99.90;;;;;;4158099;28;20029;-59
2022/04/07 01:30:12;;;;;;;22.73;12.50;;;5.40;99.90;;;;;;4157705;28;20718;-54
2022/04/07 01:32:30;;;;;;;21.93;12.47;;;5.40;99.90;;;;;;4158593;28;20041;-62
2022/04/07 01:34:32;;;;;;;22.03;11.73;;;5.30;99.90;;;;;;4157102;28;20111;-58
2022/04/07 01:36:37;;;;;;;21.43;12.17;;;5.30;99.90;;;;;;4158173;28;20274;-58
2022/04/07 01:38:38;;;;;;;20.00;12.67;;;5.30;99.90;;;;;;4157131;28;20344;-58
2022/04/07 01:40:39;;;;;;;25.57;13.37;;;5.30;99.90;;;;;;4158867;28;20317;-54
2022/04/07 01:42:41;;;;;;;22.20;11.93;;;5.30;99.90;;;;;;4156985;28;20325;-56
2022/04/07 01:44:47;;;;;;;21.57;11.60;;;5.30;99.90;;;;;;4159130;28;20271;-63
2022/04/07 01:46:51;;;;;;;19.70;11.90;;;5.30;99.90;;;;;;4156985;28;20291;-57
2022/04/07 01:48:54;;;;;;;21.77;12.90;;;5.30;99.90;;;;;;4158692;28;20328;-56
2022/04/07 01:50:56;;;;;;;23.37;13.30;;;5.30;99.90;;;;;;4157135;28;20298;-58
2022/04/07 01:52:59;;;;;;;23.73;12.67;;;5.20;99.90;;;;;;4158388;28;20305;-57
2022/04/07 01:55:01;;;;;;;20.83;12.47;;;5.20;99.90;;;;;;4158033;28;20788;-58
2022/04/07 01:57:03;;;;;;;24.13;14.00;;;5.10;99.90;;;;;;4158257;28;20274;-62
2022/04/07 01:59:05;;;;;;;21.00;12.80;;;5.00;99.90;;;;;;4156756;28;20314;-59
2022/04/07 02:01:06;;;;;;;22.00;13.03;;;5.00;99.90;;;;;;4156736;28;20336;-59
2022/04/07 02:03:10;;;;;;;21.63;12.20;;;5.00;99.90;;;;;;4157678;28;20304;-57
2022/04/07 02:05:12;;;;;;;25.77;13.73;;;4.90;99.90;;;;;;4157125;28;20638;-58
2022/04/07 02:07:13;;;;;;;22.13;13.13;;;4.80;99.90;;;;;;4157725;28;20279;-58
2022/04/07 02:09:14;;;;;;;24.90;13.40;;;4.80;99.90;;;;;;4157100;28;20275;-56
2022/04/07 02:11:15;;;;;;;27.27;13.97;;;4.80;99.90;;;;;;4158242;28;20267;-57
2022/04/07 02:13:16;;;;;;;23.53;13.40;;;4.80;99.90;;;;;;4156560;28;20263;-53
2022/04/07 02:15:17;;;;;;;26.00;13.47;;;4.80;99.90;;;;;;4158020;28;20308;-60
2022/04/07 02:17:20;;;;;;;25.60;13.70;;;4.80;99.90;;;;;;4157051;28;20270;-62
2022/04/07 02:19:21;;;;;;;21.27;12.70;;;4.90;99.90;;;;;;4157342;28;20687;-57
2022/04/07 02:21:23;;;;;;;24.97;12.90;;;5.00;99.90;;;;;;4156852;28;20266;-58
2022/04/07 02:23:24;;;;;;;21.30;12.97;;;5.00;99.90;;;;;;4157675;28;20677;-60
2022/04/07 02:25:27;;;;;;;22.87;13.57;;;5.00;99.90;;;;;;4156588;28;21054;-58
2022/04/07 02:27:36;;;;;;;27.07;13.93;;;5.00;99.90;;;;;;4158151;28;20278;-59
2022/04/07 02:29:37;;;;;;;21.40;13.27;;;5.00;99.90;;;;;;4156632;28;20794;-56
2022/04/07 02:31:38;;;;;;;24.77;14.20;;;5.00;99.90;;;;;;4157966;28;20604;-57
2022/04/07 02:33:40;;;;;;;21.63;13.03;;;5.00;99.90;;;;;;4156563;28;20286;-55
2022/04/07 02:35:41;;;;;;;23.77;13.30;;;4.90;99.90;;;;;;4156457;28;20274;-59
2022/04/07 02:37:45;;;;;;;20.47;12.97;;;4.90;99.90;;;;;;4157021;28;20270;-64
2022/04/07 02:39:46;;;;;;;20.83;12.23;;;4.90;99.90;;;;;;4156699;28;20695;-59
2022/04/07 02:41:48;;;;;;;21.53;12.37;;;4.90;99.90;;;;;;4156932;28;20262;-60
2022/04/07 02:43:50;;;;;;;21.50;12.20;;;4.90;99.90;;;;;;4156363;28;20275;-57
2022/04/07 02:45:51;;;;;;;23.23;13.40;;;4.90;99.90;;;;;;4157594;28;20840;-59
2022/04/07 02:47:52;;;;;;;22.27;12.23;;;4.90;99.90;;;;;;4156234;28;20344;-55
2022/04/07 02:49:53;;;;;;;18.80;11.53;;;4.90;99.90;;;;;;4157604;28;20262;-58
2022/04/07 02:51:54;;;;;;;21.80;12.23;;;4.90;99.90;;;;;;4154783;28;20282;-57
2022/04/07 02:53:58;;;;;;;22.83;12.53;;;5.00;99.90;;;;;;4157368;28;20305;-60
2022/04/07 02:55:59;;;;;;;26.03;13.20;;;5.00;99.90;;;;;;4155128;28;20278;-55
2022/04/07 02:58:00;;;;;;;22.70;12.63;;;5.00;99.90;;;;;;4157872;28;20828;-56
2022/04/07 03:00:04;;;;;;;27.90;14.20;;;5.00;99.90;;;;;;4155596;28;20407;-59
2022/04/07 03:02:05;;;;;;;22.97;14.00;;;5.00;99.90;;;;;;4157415;28;20286;-57
2022/04/07 03:04:06;;;;;;;25.53;13.77;;;5.00;99.90;;;;;;4156578;28;20321;-56
2022/04/07 03:06:07;;;;;;;24.83;12.90;;;5.00;99.90;;;;;;4157102;28;20662;-57
2022/04/07 03:08:08;;;;;;;25.87;12.80;;;5.00;99.90;;;;;;4156678;28;20298;-57
2022/04/07 03:10:10;;;;;;;25.10;14.27;;;5.00;99.90;;;;;;4156400;28;20279;-59
2022/04/07 03:12:13;;;;;;;26.33;14.03;;;5.00;99.90;;;;;;4156220;28;20267;-58
2022/04/07 03:14:16;;;;;;;23.10;14.50;;;5.00;99.90;;;;;;4156558;28;20312;-58
2022/04/07 03:16:17;;;;;;;24.47;13.10;;;4.90;99.90;;;;;;4157660;28;20329;-56
2022/04/07 03:18:19;;;;;;;23.47;12.60;;;4.90;99.90;;;;;;4155569;28;20749;-56
2022/04/07 03:20:20;;;;;;;24.13;12.77;;;4.90;99.90;;;;;;4154804;28;21174;-58
2022/04/07 03:22:21;;;;;;;27.67;14.50;;;4.80;99.90;;;;;;4154104;28;20341;-57
2022/04/07 03:24:24;;;;;;;26.57;13.73;;;4.80;99.90;;;;;;4147287;28;20747;-55
2022/04/07 03:26:25;;;;;;;23.87;13.33;;;4.70;99.90;;;;;;4143308;28;20275;-58
2022/04/07 03:28:26;;;;;;;24.57;13.03;;;4.60;99.90;;;;;;4144432;28;20597;-54
2022/04/07 03:30:27;;;;;;;21.10;12.80;;;4.50;99.90;;;;;;4143099;28;20267;-58
2022/04/07 03:32:29;;;;;;;20.37;12.90;;;4.50;99.90;;;;;;4149322;28;20304;-58
2022/04/07 03:34:31;;;;;;;21.93;12.70;;;4.40;99.90;;;;;;4159140;28;20271;-59
2022/04/07 03:36:32;;;;;;;24.37;13.37;;;4.30;99.90;;;;;;4159726;28;20275;-55
2022/04/07 03:38:35;;;;;;;21.30;12.27;;;4.20;99.90;;;;;;4158135;28;20328;-58
2022/04/07 03:40:36;;;;;;;23.40;14.30;;;4.20;99.90;;;;;;4159686;28;20335;-57
2022/04/07 03:42:38;;;;;;;29.57;14.43;;;4.20;99.90;;;;;;4159645;28;20282;-62
2022/04/07 03:44:39;;;;;;;27.17;14.20;;;4.10;99.90;;;;;;4159626;28;20735;-58
2022/04/07 03:46:40;;;;;;;24.23;12.57;;;4.10;99.90;;;;;;4159876;28;20279;-54
2022/04/07 03:48:41;;;;;;;24.10;14.73;;;4.10;99.90;;;;;;4157012;28;20722;-61
2022/04/07 03:50:43;;;;;;;22.50;13.00;;;4.10;99.90;;;;;;4160014;28;20263;-59
2022/04/07 03:52:44;;;;;;;31.53;15.90;;;4.00;99.90;;;;;;4159109;28;20278;-57
2022/04/07 03:54:45;;;;;;;28.10;16.77;;;4.10;99.90;;;;;;4158279;28;20305;-59
2022/04/07 03:56:46;;;;;;;29.53;15.47;;;4.10;99.90;;;;;;4159261;28;20316;-62
2022/04/07 03:58:47;;;;;;;30.57;16.50;;;4.10;99.90;;;;;;4159461;28;20328;-61
2022/04/07 04:00:48;;;;;;;32.90;17.00;;;4.10;99.90;;;;;;4158210;28;20325;-56
2022/04/07 04:02:50;;;;;;;35.27;17.93;;;4.10;99.90;;;;;;4159940;28;20271;-57
2022/04/07 04:04:51;;;;;;;27.43;16.57;;;4.20;99.90;;;;;;4157815;28;20742;-57
2022/04/07 04:06:53;;;;;;;29.47;16.80;;;4.40;99.90;;;;;;4159449;28;20397;-58
2022/04/07 04:08:54;;;;;;;28.60;16.33;;;4.60;99.90;;;;;;4158524;28;20758;-59
2022/04/07 04:10:55;;;;;;;32.50;17.63;;;4.60;99.90;;;;;;4159055;28;20266;-61
2022/04/07 04:12:56;;;;;;;28.93;16.77;;;4.70;99.90;;;;;;4158395;28;20747;-58
2022/04/07 04:14:57;;;;;;;30.07;16.73;;;5.00;99.90;;;;;;4158571;28;20595;-63
2022/04/07 04:16:59;;;;;;;34.50;17.27;;;5.20;99.90;;;;;;4159203;28;20275;-61
2022/04/07 04:19:00;;;;;;;28.77;15.37;;;5.60;99.90;;;;;;4157284;28;20282;-58
2022/04/07 04:21:01;;;;;;;25.10;14.87;;;6.00;99.90;;;;;;4159308;28;20746;-56
2022/04/07 04:23:02;;;;;;;28.27;15.57;;;6.30;99.90;;;;;;4157778;28;20263;-58
2022/04/07 04:25:04;;;;;;;28.67;15.50;;;6.80;99.90;;;;;;4159270;28;20332;-57
2022/04/07 04:27:06;;;;;;;31.17;14.43;;;7.00;99.90;;;;;;4158001;28;20300;-55
2022/04/07 04:29:07;;;;;;;24.67;14.07;;;7.10;99.90;;;;;;4159648;28;20134;-67
2022/04/07 04:31:08;;;;;;;26.23;14.07;;;7.00;99.90;;;;;;4157692;28;20103;-59
2022/04/07 04:33:10;;;;;;;22.03;14.27;;;6.90;99.90;;;;;;4158851;28;20410;-54
2022/04/07 04:35:12;;;;;;;20.33;12.90;;;6.80;99.90;;;;;;4143169;28;20202;-60
2022/04/07 04:37:13;;;;;;;21.47;13.37;;;6.80;99.90;;;;;;4142629;28;20034;-55
2022/04/07 04:39:14;;;;;;;28.67;14.00;;;6.60;99.90;;;;;;4141791;28;20054;-57
2022/04/07 04:41:16;;;;;;;27.80;12.70;;;6.50;99.90;;;;;;4137413;28;20421;-56
2022/04/07 04:43:17;;;;;;;29.40;13.83;;;6.40;99.90;;;;;;4140756;28;20490;-55
2022/04/07 04:45:18;;;;;;;24.07;12.80;;;6.50;99.90;;;;;;4141978;28;20064;-51
2022/04/07 04:47:19;;;;;;;22.30;12.53;;;6.50;99.90;;;;;;4142256;28;21589;-57
2022/04/07 04:49:20;;;;;;;23.90;12.87;;;6.50;99.90;;;;;;4141424;28;20096;-57
2022/04/07 04:51:21;;;;;;;26.27;14.07;;;6.40;99.90;;;;;;4142759;28;20177;-58
2022/04/07 04:53:23;;;;;;;20.83;12.60;;;6.40;99.90;;;;;;4141062;28;20387;-60
2022/04/07 04:55:24;;;;;;;19.73;11.97;;;6.40;99.90;;;;;;4142876;28;20431;-57
2022/04/07 04:57:27;;;;;;;20.13;11.83;;;6.30;99.90;;;;;;4139693;28;20165;-52
2022/04/07 04:59:28;;;;;;;22.33;11.90;;;6.30;99.90;;;;;;4142419;28;20054;-58
2022/04/07 05:01:29;;;;;;;23.13;11.43;;;6.20;99.90;;;;;;4141212;28;20045;-61
2022/04/07 05:03:30;;;;;;;29.17;12.07;;;6.20;99.90;;;;;;4142580;28;20112;-57
2022/04/07 05:05:31;;;;;;;23.03;10.40;;;6.10;99.90;;;;;;4140076;28;20079;-56
2022/04/07 05:07:33;;;;;;;21.10;10.90;;;6.10;99.90;;;;;;4140898;28;20084;-61
2022/04/07 05:09:34;;;;;;;19.27;11.33;;;6.10;99.90;;;;;;4139999;28;20030;-59
2022/04/07 05:11:36;;;;;;;17.87;10.03;;;6.20;99.90;;;;;;4141426;28;20030;-58
2022/04/07 05:13:37;;;;;;;19.47;11.33;;;6.30;99.90;;;;;;4141296;28;20486;-58
2022/04/07 05:15:39;;;;;;;32.80;13.57;;;6.30;99.90;;;;;;4141770;28;20117;-56
2022/04/07 05:17:40;;;;;;;22.83;12.20;;;6.30;99.90;;;;;;4140568;28;20092;-56
2022/04/07 05:19:44;;;;;;;18.93;10.10;;;6.30;99.90;;;;;;4140901;28;20041;-56
2022/04/07 05:21:49;;;;;;;16.97;10.80;;;6.20;99.90;;;;;;4141241;28;20030;-57
2022/04/07 05:23:50;;;;;;;22.87;10.90;;;6.20;99.90;;;;;;4140792;28;20034;-56
2022/04/07 05:25:51;;;;;;;18.40;11.40;;;6.10;99.90;;;;;;4141876;28;20096;-58
2022/04/07 05:27:52;;;;;;;24.63;11.93;;;6.10;99.90;;;;;;4140962;28;20045;-57
2022/04/07 05:29:53;;;;;;;22.10;10.97;;;6.10;99.90;;;;;;4141985;28;20034;-56
2022/04/07 05:31:54;;;;;;;18.00;10.50;;;6.20;99.90;;;;;;4140587;28;20033;-58
2022/04/07 05:33:55;;;;;;;18.67;9.07;;;6.20;99.90;;;;;;4141782;28;20486;-60
2022/04/07 05:35:57;;;;;;;25.50;10.87;;;6.20;99.90;;;;;;4140329;28;20046;-61
2022/04/07 05:38:02;;;;;;;17.47;9.63;;;6.30;99.90;;;;;;4141729;28;20504;-58
2022/04/07 05:40:04;;;;;;;29.53;10.57;;;6.40;99.90;;;;;;4140111;28;20107;-54
2022/04/07 05:42:06;;;;;;;16.93;8.97;;;6.50;99.90;;;;;;4141744;28;20357;-57
2022/04/07 05:44:07;;;;;;;16.47;9.43;;;6.60;99.90;;;;;;4140450;28;20033;-55
2022/04/07 05:46:08;;;;;;;21.50;11.13;;;6.70;99.90;;;;;;4141673;28;20486;-60
2022/04/07 05:48:10;;;;;;;41.03;18.27;;;6.70;99.90;;;;;;4140125;28;20129;-58
2022/04/07 05:50:11;;;;;;;21.43;12.43;;;6.80;99.90;;;;;;4141246;28;20046;-55
2022/04/07 05:52:13;;;;;;;26.37;11.67;;;6.90;99.90;;;;;;4141345;28;20046;-58
2022/04/07 05:54:17;;;;;;;19.33;10.10;;;6.90;99.90;;;;;;4140750;28;20122;-60
2022/04/07 05:56:18;;;;;;;19.87;9.90;;;7.00;99.90;;;;;;4141294;28;20038;-60
2022/04/07 05:58:19;;;;;;;24.07;9.30;;;7.10;99.90;;;;;;4140335;28;20363;-58
2022/04/07 06:00:21;;;;;;;18.90;9.73;;;7.20;99.90;;;;;;4141999;28;20121;-58
2022/04/07 06:02:22;;;;;;;21.37;8.90;;;7.20;99.90;;;;;;4140172;28;20556;-60
2022/04/07 06:04:23;;;;;;;16.97;8.73;;;7.30;99.90;;;;;;4141921;28;20100;-60
2022/04/07 06:06:24;;;;;;;15.23;9.90;;;7.30;99.90;;;;;;4140186;28;20037;-59
2022/04/07 06:08:25;;;;;;;15.93;8.93;;;7.40;99.90;;;;;;4141491;28;20021;-58
2022/04/07 06:10:27;;;;;;;20.03;10.87;;;7.50;99.90;;;;;;4140052;28;20042;-58
2022/04/07 06:12:28;;;;;;;17.80;9.10;;;7.50;99.90;;;;;;4141447;28;20092;-61
2022/04/07 06:14:29;;;;;;;20.20;9.37;;;7.60;99.90;;;;;;4139676;28;20045;-56
2022/04/07 06:16:31;;;;;;;17.37;9.73;;;7.70;99.90;;;;;;4141518;28;20045;-58
2022/04/07 06:18:32;;;;;;;22.33;10.70;;;7.70;99.90;;;;;;4141255;28;20280;-58
2022/04/07 06:20:33;;;;;;;29.60;10.03;;;7.80;99.90;;;;;;4140589;28;20421;-58
2022/04/07 06:22:34;;;;;;;20.17;10.03;;;7.80;99.90;;;;;;4141023;28;20434;-59
2022/04/07 06:24:36;;;;;;;20.60;9.97;;;7.80;99.90;;;;;;4140237;28;20038;-59
2022/04/07 06:26:37;;;;;;;18.60;9.50;;;7.90;99.90;;;;;;4140427;28;20084;-54
2022/04/07 06:28:40;;;;;;;23.07;10.27;;;7.90;99.90;;;;;;4140091;28;20034;-57
2022/04/07 06:30:41;;;;;;;18.73;9.07;;;7.90;99.90;;;;;;4140490;28;20092;-52
2022/04/07 06:32:43;;;;;;;26.40;9.53;;;8.00;99.90;;;;;;4139265;28;20552;-58
2022/04/07 06:34:44;;;;;;;21.03;10.30;;;8.00;99.90;;;;;;4141346;28;20104;-60
2022/04/07 06:36:46;;;;;;;22.77;10.60;;;8.00;99.90;;;;;;4140192;28;20625;-60
2022/04/07 06:38:47;;;;;;;21.00;10.30;;;8.10;99.90;;;;;;4141488;28;20034;-56
2022/04/07 06:40:48;;;;;;;23.20;10.87;;;8.10;99.90;;;;;;4139621;28;20042;-58
2022/04/07 06:42:50;;;;;;;21.30;10.53;;;8.20;99.90;;;;;;4141118;28;20087;-55
2022/04/07 06:44:51;;;;;;;18.10;9.03;;;8.30;99.90;;;;;;4139923;28;20041;-59
2022/04/07 06:46:52;;;;;;;21.73;10.17;;;8.30;99.90;;;;;;4141112;28;20053;-58
2022/04/07 06:48:53;;;;;;;19.87;10.23;;;8.40;99.90;;;;;;4139795;28;20056;-60
2022/04/07 06:50:55;;;;;;;30.03;11.20;;;8.50;99.90;;;;;;4140243;28;20026;-61
2022/04/07 06:52:56;;;;;;;25.67;11.73;;;8.50;99.90;;;;;;4140291;28;20030;-54
2022/04/07 06:54:57;;;;;;;26.27;11.93;;;8.60;99.90;;;;;;4140151;28;20072;-59
2022/04/07 06:56:59;;;;;;;24.87;11.87;;;8.60;99.90;;;;;;4140592;28;20635;-60
2022/04/07 06:59:01;;;;;;;29.33;11.10;;;8.60;99.90;;;;;;4139186;28;20108;-60
2022/04/07 07:01:02;;;;;;;19.73;10.60;;;8.60;99.90;;;;;;4140252;28;20103;-57
2022/04/07 07:03:04;;;;;;;23.67;10.30;;;8.70;99.90;;;;;;4139516;28;20413;-58
2022/04/07 07:05:05;;;;;;;21.47;11.60;;;8.70;99.90;;;;;;4140793;28;20103;-56
2022/04/07 07:07:06;;;;;;;20.67;10.50;;;8.70;99.90;;;;;;4139791;28;20092;-58
2022/04/07 07:09:09;;;;;;;20.37;10.07;;;8.70;99.90;;;;;;4140840;28;20042;-57
2022/04/07 07:11:11;;;;;;;18.33;10.07;;;8.80;99.90;;;;;;4139716;28;20050;-57
2022/04/07 07:13:14;;;;;;;27.43;10.07;;;8.80;99.90;;;;;;4141046;28;20088;-59
2022/04/07 07:15:15;;;;;;;26.03;10.30;;;8.80;99.90;;;;;;4139555;28;20034;-58
2022/04/07 07:17:16;;;;;;;21.00;10.00;;;8.80;99.90;;;;;;4140929;28;20045;-58
2022/04/07 07:19:18;;;;;;;18.70;10.10;;;8.80;99.90;;;;;;4138981;28;20095;-59
2022/04/07 07:21:19;;;;;;;22.87;11.23;;;8.90;99.90;;;;;;4139786;28;20112;-58
2022/04/07 07:23:20;;;;;;;28.57;10.17;;;8.90;99.90;;;;;;4139760;28;20437;-62
2022/04/07 07:25:21;;;;;;;22.10;10.07;;;8.90;99.90;;;;;;4139760;28;20084;-62
2022/04/07 07:27:22;;;;;;;28.33;11.77;;;9.00;99.90;;;;;;4140121;28;20029;-56
2022/04/07 07:29:23;;;;;;;20.50;11.07;;;9.00;99.90;;;;;;4139788;28;20505;-58
2022/04/07 07:31:24;;;;;;;27.80;10.33;;;9.10;99.90;;;;;;4140575;28;20038;-61
2022/04/07 07:33:26;;;;;;;19.27;9.30;;;9.10;99.90;;;;;;4138708;28;20092;-58
2022/04/07 07:35:27;;;;;;;18.40;8.93;;;9.20;99.90;;;;;;4140636;28;20041;-59
2022/04/07 07:37:28;;;;;;;19.63;10.13;;;9.30;99.90;;;;;;4139244;28;20072;-58
2022/04/07 07:39:30;;;;;;;17.90;9.50;;;9.30;99.90;;;;;;4140970;28;20037;-60
2022/04/07 07:41:31;;;;;;;21.87;9.40;;;9.40;99.90;;;;;;4139095;28;20026;-56
2022/04/07 07:43:33;;;;;;;20.53;10.37;;;9.50;99.90;;;;;;4141175;28;20069;-62
2022/04/07 07:45:35;;;;;;;24.60;10.37;;;9.60;99.90;;;;;;4139232;28;20084;-58
2022/04/07 07:47:36;;;;;;;23.63;9.03;;;9.60;99.90;;;;;;4140801;28;20046;-58
2022/04/07 07:49:37;;;;;;;22.43;9.43;;;9.70;99.90;;;;;;4139140;28;20061;-57
2022/04/07 07:51:39;;;;;;;26.27;9.30;;;9.70;99.90;;;;;;4140019;28;20088;-59
2022/04/07 07:53:40;;;;;;;20.93;9.17;;;9.70;99.90;;;;;;4139126;28;20088;-58
2022/04/07 07:55:41;;;;;;;27.00;10.03;;;9.80;99.90;;;;;;4154462;28;20046;-61
2022/04/07 07:57:42;;;;;;;20.13;8.73;;;9.80;99.90;;;;;;4139808;28;20041;-60
2022/04/07 07:59:43;;;;;;;24.60;8.77;;;9.90;99.90;;;;;;4153811;28;20038;-60
2022/04/07 08:01:44;;;;;;;23.93;9.13;;;10.00;99.90;;;;;;4140192;28;20096;-57
2022/04/07 08:03:46;;;;;;;18.47;9.10;;;10.00;99.90;;;;;;4138692;28;20045;-58
2022/04/07 08:05:47;;;;;;;34.03;10.07;;;10.10;99.90;;;;;;4139936;28;20030;-57
2022/04/07 08:07:48;;;;;;;24.57;10.07;;;10.20;99.90;;;;;;4138699;28;20099;-58
2022/04/07 08:09:49;;;;;;;19.70;8.97;;;10.30;99.90;;;;;;4140356;28;20037;-58
2022/04/07 08:11:50;;;;;;;24.23;8.27;;;10.40;99.90;;;;;;4140944;28;20029;-61
2022/04/07 08:13:51;;;;;;;18.47;7.47;;;10.40;99.90;;;;;;4143476;28;20037;-58
2022/04/07 08:15:52;;;;;;;19.37;7.30;;;10.50;99.90;;;;;;4141262;28;20022;-58
2022/04/07 08:17:53;;;;;;;19.40;8.57;;;10.70;99.90;;;;;;4142892;28;20116;-56
2022/04/07 08:19:55;;;;;;;14.47;6.20;;;10.80;99.90;;;;;;4141303;28;20026;-61
2022/04/07 08:21:56;;;;;;;11.03;5.97;;;10.80;99.90;;;;;;4142202;28;20488;-59
2022/04/07 08:23:57;;;;;;;12.30;7.63;;;11.00;99.90;;;;;;4142446;28;20104;-60
2022/04/07 08:26:00;;;;;;;17.50;6.67;;;11.00;99.90;;;;;;4157199;28;20083;-60
2022/04/07 08:28:02;;;;;;;11.07;5.73;;;11.10;99.90;;;;;;4143073;28;20088;-58
2022/04/07 08:30:04;;;;;;;15.47;5.40;;;11.10;99.90;;;;;;4141810;28;20034;-60
2022/04/07 08:32:05;;;;;;;18.37;7.77;;;11.20;99.90;;;;;;4143001;28;20045;-57
2022/04/07 08:34:06;;;;;;;16.93;6.10;;;11.30;99.90;;;;;;4140992;28;20042;-57
2022/04/07 08:36:07;;;;;;;14.33;6.90;;;11.30;99.90;;;;;;4142668;28;20096;-58
2022/04/07 08:38:14;;;;;;;12.97;6.27;;;11.40;99.90;;;;;;4141117;28;20034;-56
2022/04/07 08:40:19;;;;;;;11.63;6.63;;;11.40;99.90;;;;;;4143209;28;20398;-56
2022/04/07 08:42:23;;;;;;;14.97;5.93;;;11.50;99.90;;;;;;4141653;28;20038;-55
2022/04/07 08:44:31;;;;;;;12.53;6.10;;;11.50;99.90;;;;;;4142336;28;20849;-51
2022/04/07 08:46:33;;;;;;;14.43;5.40;;;11.50;99.90;;;;;;4141036;28;20133;-56
2022/04/07 08:48:42;;;;;;;14.33;6.17;;;11.50;99.90;;;;;;4156549;28;20045;-59
2022/04/07 08:50:44;;;;;;;15.83;7.13;;;11.60;99.90;;;;;;4140975;28;20080;-58
2022/04/07 08:52:46;;;;;;;9.80;5.33;;;11.60;99.90;;;;;;4142656;28;20155;-56
2022/04/07 08:54:47;;;;;;;12.20;5.90;;;11.80;99.90;;;;;;4140926;28;20030;-57
2022/04/07 08:56:49;;;;;;;14.47;7.27;;;11.90;99.90;;;;;;4142302;28;20049;-60
2022/04/07 08:58:51;;;;;;;13.50;7.00;;;12.00;99.90;;;;;;4140937;28;20081;-59
2022/04/07 09:00:52;;;;;;;17.47;7.13;;;12.20;99.90;;;;;;4142276;28;20049;-61
2022/04/07 09:02:53;;;;;;;27.97;10.83;;;12.30;99.90;;;;;;4141169;28;20096;-57
2022/04/07 09:05:01;;;;;;;22.83;10.50;;;12.40;99.90;;;;;;4141314;28;20501;-59
2022/04/07 09:07:02;;;;;;;21.87;8.53;;;12.50;99.90;;;;;;4141517;28;20049;-59
2022/04/07 09:09:16;;;;;;;22.80;9.33;;;12.60;99.90;;;;;;4141213;28;20446;-58
2022/04/07 09:11:19;;;;;;;21.97;11.13;;;12.70;99.90;;;;;;4142156;28;20083;-55
2022/04/07 09:13:20;;;;;;;26.27;12.33;;;12.80;99.90;;;;;;4141391;28;20033;-59
2022/04/07 09:15:22;;;;;;;26.40;12.20;;;12.80;99.90;;;;;;4141676;28;20076;-55
2022/04/07 09:17:23;;;;;;;25.90;11.17;;;12.90;99.90;;;;;;4141339;28;20100;-56
2022/04/07 09:19:25;;;;;;;29.20;11.43;;;12.90;99.90;;;;;;4141570;28;20430;-57
2022/04/07 09:21:27;;;;;;;25.83;11.20;;;12.90;99.90;;;;;;4154996;28;20061;-59
2022/04/07 09:23:35;;;;;;;21.03;12.17;;;12.90;99.90;;;;;;4141077;28;20088;-59
2022/04/07 09:25:43;;;;;;;20.17;10.43;;;12.90;99.90;;;;;;4140653;28;20042;-63
2022/04/07 09:27:49;;;;;;;25.50;11.30;;;12.80;99.90;;;;;;4142347;28;20465;-55
2022/04/07 09:29:54;;;;;;;26.00;11.13;;;12.80;99.90;;;;;;4141020;28;20049;-54
2022/04/07 09:31:55;;;;;;;26.50;11.83;;;12.70;99.90;;;;;;4142332;28;20453;-63
2022/04/07 09:33:57;;;;;;;20.20;11.40;;;12.80;99.90;;;;;;4140729;28;20045;-57
2022/04/07 09:36:01;;;;;;;26.53;11.83;;;12.90;99.90;;;;;;4142345;28;20054;-58
2022/04/07 09:38:03;;;;;;;21.70;11.27;;;13.00;99.90;;;;;;4140523;28;20439;-59
2022/04/07 09:40:14;;;;;;;19.87;11.17;;;13.10;99.90;;;;;;4155786;28;20132;-58
2022/04/07 09:42:25;;;;;;;27.40;10.95;;;13.10;99.90;;;;;;4140633;28;20061;-58
2022/04/07 09:44:26;;;;;;;19.73;11.00;;;13.20;99.90;;;;;;4141337;28;20534;-56
2022/04/07 09:46:35;;;;;;;23.47;12.43;;;13.30;99.90;;;;;;4140624;28;20646;-56
2022/04/07 09:48:38;;;;;;;20.17;11.80;;;13.30;99.90;;;;;;4141696;28;20022;-56
2022/04/07 09:50:39;;;;;;;20.97;12.27;;;13.40;99.90;;;;;;4140901;28;20437;-58
2022/04/07 09:52:53;;;;;;;21.60;12.43;;;13.50;99.90;;;;;;4141068;28;20034;-63
2022/04/07 09:55:01;;;;;;;21.33;11.50;;;13.50;99.90;;;;;;4140796;28;20050;-61
2022/04/07 09:57:04;;;;;;;23.83;12.27;;;13.50;99.90;;;;;;4140789;28;20494;-59
2022/04/07 09:59:07;;;;;;;22.67;10.93;;;13.60;99.90;;;;;;4140999;28;20046;-57
2022/04/07 10:01:09;;;;;;;25.83;10.60;;;13.60;99.90;;;;;;4140301;28;20073;-58
2022/04/07 10:03:10;;;;;;;24.27;11.13;;;13.60;99.90;;;;;;4141380;28;20081;-58
2022/04/07 10:05:12;;;;;;;18.87;10.13;;;13.70;99.90;;;;;;4139829;28;20037;-58
2022/04/07 10:07:13;;;;;;;20.23;10.13;;;13.80;99.90;;;;;;4140940;28;20084;-60
2022/04/07 10:09:17;;;;;;;14.53;9.10;;;14.00;99.90;;;;;;4140166;28;20045;-60
2022/04/07 10:11:18;;;;;;;19.70;10.37;;;14.10;99.60;;;;;;4141230;28;20041;-57
2022/04/07 10:13:20;;;;;;;25.47;10.10;;;14.10;99.10;;;;;;4140492;28;20559;-60
2022/04/07 10:15:21;;;;;;;17.53;9.57;;;14.20;99.20;;;;;;4141354;28;20076;-56
2022/04/07 10:17:23;;;;;;;17.90;10.13;;;14.40;99.30;;;;;;4140167;28;20046;-59
2022/04/07 10:19:33;;;;;;;18.13;8.63;;;14.70;99.00;;;;;;4141034;28;20026;-58
2022/04/07 10:22:06;;;;;;;19.17;8.07;;;14.90;98.50;;;;;;4139748;28;20526;-57
2022/04/07 10:24:31;;;;;;;20.13;8.80;;;15.00;97.80;;;;;;4139235;28;20156;-56
2022/04/07 10:26:34;;;;;;;15.10;8.83;;;15.20;97.20;;;;;;4139723;28;20046;-54